AIH69B LGSK-EGKK
Flight info
| Callsign | AIH69B |
|---|---|
| Flight time | 3h 5m |
| Altitude | 34000 |
| Route | IBIDI UL617 TSL UN130 TALAS DCT ENFAR DCT MSR DCT PEVAL DCT LAMPO DCT GUNGO DCT SAFFA DCT ELMUR DCT RIPUS DCT DITON DCT HOC DCT LUL DCT RLP DCT ROTSI DCT KOTUN DCT NINAL DCT KESAX DCT KUNAV |
| Aircraft | A320/M-SDE3FGHIRWY/LB1 |
Departure
| Time | 2026-05-04 13:39 |
|---|---|
| Airport | Skiathos Island National Airport (LGSK) |
Arrival
| Time | 2026-05-04 16:44 |
|---|---|
| Airport | London Gatwick Airport (EGKK) |
| Time | Latitude | Longitude | Altitude | Speed | Heading |
|---|---|---|---|---|---|
| 2026-05-04 13:06 | 39.17801 | 23.50189 | 40 ft | 0 kts | 288° |
| 2026-05-04 13:30 | 39.17795 | 23.50216 | 37 ft | 4 kts | 282° |
| 2026-05-04 13:30 | 39.17791 | 23.50250 | 35 ft | 4 kts | 267° |
| 2026-05-04 13:30 | 39.17797 | 23.50281 | 36 ft | 4 kts | 224° |
| 2026-05-04 13:30 | 39.17805 | 23.50288 | 36 ft | 0 kts | 198° |
| 2026-05-04 13:35 | 39.17793 | 23.50283 | 36 ft | 5 kts | 199° |
| 2026-05-04 13:35 | 39.17663 | 23.50348 | 41 ft | 10 kts | 166° |
| 2026-05-04 13:35 | 39.17591 | 23.50314 | 41 ft | 16 kts | 200° |
| 2026-05-04 13:36 | 39.17475 | 23.50259 | 39 ft | 19 kts | 200° |
| 2026-05-04 13:36 | 39.17335 | 23.50199 | 32 ft | 24 kts | 198° |
| 2026-05-04 13:36 | 39.17166 | 23.50125 | 22 ft | 24 kts | 199° |
| 2026-05-04 13:36 | 39.17075 | 23.50073 | 18 ft | 12 kts | 219° |
| 2026-05-04 13:37 | 39.17015 | 23.50059 | 10 ft | 11 kts | 103° |
| 2026-05-04 13:37 | 39.17052 | 23.50083 | 15 ft | 5 kts | 353° |
| 2026-05-04 13:37 | 39.17078 | 23.50087 | 18 ft | 0 kts | 17° |
| 2026-05-04 13:38 | 39.17079 | 23.50087 | 18 ft | 4 kts | 17° |
| 2026-05-04 13:38 | 39.17377 | 23.50218 | 35 ft | 84 kts | 19° |
| 2026-05-04 13:38 | 39.18147 | 23.50564 | 52 ft | 146 kts | 19° |
| 2026-05-04 13:39 | 39.19147 | 23.51009 | 655 ft | 145 kts | 18° |
| 2026-05-04 13:39 | 39.20077 | 23.51421 | 1451 ft | 140 kts | 14° |
| 2026-05-04 13:39 | 39.20991 | 23.51827 | 2202 ft | 135 kts | 14° |
| 2026-05-04 13:39 | 39.21934 | 23.52241 | 2434 ft | 152 kts | 13° |
| 2026-05-04 13:40 | 39.23002 | 23.52558 | 2672 ft | 166 kts | 354° |
| 2026-05-04 13:40 | 39.24206 | 23.52383 | 2898 ft | 185 kts | 349° |
| 2026-05-04 13:40 | 39.25560 | 23.52130 | 3101 ft | 208 kts | 349° |
| 2026-05-04 13:40 | 39.27096 | 23.51852 | 3292 ft | 236 kts | 350° |
| 2026-05-04 13:41 | 39.28809 | 23.51585 | 3710 ft | 254 kts | 351° |
| 2026-05-04 13:41 | 39.30541 | 23.51362 | 4788 ft | 248 kts | 353° |
| 2026-05-04 13:41 | 39.32261 | 23.51168 | 5651 ft | 250 kts | 354° |
| 2026-05-04 13:42 | 39.35826 | 23.50788 | 7035 ft | 263 kts | 355° |
| 2026-05-04 13:42 | 39.37665 | 23.50608 | 7744 ft | 267 kts | 356° |
| 2026-05-04 13:42 | 39.39526 | 23.50429 | 8524 ft | 268 kts | 356° |
| 2026-05-04 13:42 | 39.41383 | 23.50202 | 9310 ft | 270 kts | 351° |
| 2026-05-04 13:43 | 39.43187 | 23.49488 | 10067 ft | 273 kts | 340° |
| 2026-05-04 13:43 | 39.44950 | 23.48567 | 10765 ft | 275 kts | 340° |
| 2026-05-04 13:43 | 39.46780 | 23.47659 | 10947 ft | 296 kts | 341° |
| 2026-05-04 13:43 | 39.48780 | 23.46713 | 11116 ft | 316 kts | 342° |
| 2026-05-04 13:44 | 39.50910 | 23.45707 | 11298 ft | 335 kts | 342° |
| 2026-05-04 13:44 | 39.53151 | 23.44643 | 11495 ft | 351 kts | 342° |
| 2026-05-04 13:44 | 39.55494 | 23.43521 | 11715 ft | 365 kts | 341° |
| 2026-05-04 13:44 | 39.57899 | 23.42353 | 12147 ft | 372 kts | 341° |
| 2026-05-04 13:45 | 39.60326 | 23.41158 | 12706 ft | 376 kts | 341° |
| 2026-05-04 13:45 | 39.62779 | 23.39944 | 13284 ft | 379 kts | 341° |
| 2026-05-04 13:45 | 39.65258 | 23.38731 | 13890 ft | 382 kts | 342° |
| 2026-05-04 13:45 | 39.67756 | 23.37522 | 14438 ft | 384 kts | 342° |
| 2026-05-04 13:46 | 39.70272 | 23.36317 | 14998 ft | 386 kts | 342° |
| 2026-05-04 13:46 | 39.72800 | 23.35115 | 15565 ft | 388 kts | 342° |
| 2026-05-04 13:46 | 39.75342 | 23.33914 | 16144 ft | 389 kts | 342° |
| 2026-05-04 13:46 | 39.77893 | 23.32717 | 16734 ft | 390 kts | 342° |
| 2026-05-04 13:47 | 39.80452 | 23.31523 | 17331 ft | 392 kts | 342° |
| 2026-05-04 13:47 | 39.83026 | 23.30329 | 17950 ft | 393 kts | 342° |
| 2026-05-04 13:47 | 39.85602 | 23.29142 | 18554 ft | 394 kts | 342° |
| 2026-05-04 13:47 | 39.88189 | 23.27957 | 19117 ft | 394 kts | 342° |
| 2026-05-04 13:48 | 39.90783 | 23.26776 | 19695 ft | 395 kts | 342° |
| 2026-05-04 13:48 | 39.93379 | 23.25601 | 20288 ft | 395 kts | 342° |
| 2026-05-04 13:48 | 39.95978 | 23.24432 | 20903 ft | 395 kts | 342° |
| 2026-05-04 13:48 | 39.98569 | 23.23273 | 21529 ft | 393 kts | 342° |
| 2026-05-04 13:49 | 40.01148 | 23.22126 | 22164 ft | 390 kts | 343° |
| 2026-05-04 13:49 | 40.03708 | 23.20993 | 22823 ft | 387 kts | 343° |
| 2026-05-04 13:49 | 40.06250 | 23.19873 | 23498 ft | 384 kts | 343° |
| 2026-05-04 13:49 | 40.08771 | 23.18769 | 24097 ft | 380 kts | 343° |
| 2026-05-04 13:50 | 40.11269 | 23.17681 | 24673 ft | 376 kts | 343° |
| 2026-05-04 13:50 | 40.13738 | 23.16609 | 25259 ft | 371 kts | 343° |
| 2026-05-04 13:50 | 40.16141 | 23.15571 | 25846 ft | 366 kts | 343° |
| 2026-05-04 13:50 | 40.18540 | 23.14539 | 26453 ft | 360 kts | 343° |
| 2026-05-04 13:51 | 40.20896 | 23.13529 | 27050 ft | 353 kts | 344° |
| 2026-05-04 13:51 | 40.23204 | 23.12543 | 27650 ft | 345 kts | 344° |
| 2026-05-04 13:51 | 40.25460 | 23.11582 | 28218 ft | 337 kts | 344° |
| 2026-05-04 13:51 | 40.27667 | 23.10643 | 28778 ft | 329 kts | 345° |
| 2026-05-04 13:52 | 40.31902 | 23.08850 | 29958 ft | 311 kts | 344° |
| 2026-05-04 13:52 | 40.33929 | 23.07994 | 30456 ft | 301 kts | 344° |
| 2026-05-04 13:52 | 40.35896 | 23.07167 | 30795 ft | 295 kts | 344° |
| 2026-05-04 13:53 | 40.37867 | 23.06343 | 30823 ft | 301 kts | 344° |
| 2026-05-04 13:53 | 40.41961 | 23.04654 | 30901 ft | 310 kts | 344° |
| 2026-05-04 13:54 | 40.45969 | 23.03015 | 31586 ft | 299 kts | 343° |
| 2026-05-04 13:54 | 40.47866 | 23.01789 | 31322 ft | 315 kts | 320° |
| 2026-05-04 13:54 | 40.49870 | 22.96432 | 30981 ft | 346 kts | 278° |
| 2026-05-04 13:55 | 40.50041 | 22.93270 | 31176 ft | 348 kts | 281° |
| 2026-05-04 13:55 | 40.51842 | 22.87458 | 31392 ft | 348 kts | 308° |
| 2026-05-04 13:55 | 40.53321 | 22.84916 | 31425 ft | 354 kts | 313° |
| 2026-05-04 13:56 | 40.56632 | 22.79988 | 31643 ft | 365 kts | 314° |
| 2026-05-04 13:56 | 40.59946 | 22.74781 | 31889 ft | 377 kts | 311° |
| 2026-05-04 13:57 | 40.61576 | 22.72043 | 32015 ft | 383 kts | 310° |
| 2026-05-04 13:57 | 40.63204 | 22.69235 | 32135 ft | 389 kts | 310° |
| 2026-05-04 13:58 | 40.68185 | 22.60533 | 32535 ft | 404 kts | 310° |
| 2026-05-04 13:58 | 40.71607 | 22.54605 | 33094 ft | 407 kts | 310° |
| 2026-05-04 13:58 | 40.73319 | 22.51643 | 33489 ft | 405 kts | 310° |
| 2026-05-04 13:59 | 40.75021 | 22.48694 | 33896 ft | 403 kts | 310° |
| 2026-05-04 13:59 | 40.76718 | 22.45754 | 34073 ft | 403 kts | 310° |
| 2026-05-04 13:59 | 40.80168 | 22.39783 | 34096 ft | 416 kts | 311° |
| 2026-05-04 14:00 | 40.81910 | 22.36765 | 34092 ft | 421 kts | 311° |
| 2026-05-04 14:00 | 40.87248 | 22.27483 | 34108 ft | 424 kts | 310° |
| 2026-05-04 14:01 | 40.90805 | 22.21264 | 34093 ft | 424 kts | 310° |
| 2026-05-04 14:02 | 40.96141 | 22.11928 | 34081 ft | 424 kts | 311° |
| 2026-05-04 14:02 | 40.99686 | 22.05705 | 34116 ft | 423 kts | 311° |
| 2026-05-04 14:03 | 41.03217 | 21.99495 | 34130 ft | 422 kts | 311° |
| 2026-05-04 14:03 | 41.06740 | 21.93291 | 34129 ft | 421 kts | 311° |
| 2026-05-04 14:04 | 41.11815 | 21.83773 | 34116 ft | 423 kts | 308° |
| 2026-05-04 14:04 | 41.15059 | 21.77258 | 34100 ft | 423 kts | 308° |
| 2026-05-04 14:05 | 41.19967 | 21.67546 | 34120 ft | 422 kts | 308° |
| 2026-05-04 14:06 | 41.23254 | 21.61096 | 34130 ft | 422 kts | 308° |
| 2026-05-04 14:06 | 41.26528 | 21.54633 | 34128 ft | 422 kts | 308° |
| 2026-05-04 14:07 | 41.29805 | 21.48171 | 34120 ft | 421 kts | 308° |
| 2026-05-04 14:07 | 41.33066 | 21.41694 | 34121 ft | 421 kts | 308° |
| 2026-05-04 14:08 | 41.36314 | 21.35207 | 34124 ft | 421 kts | 308° |
| 2026-05-04 14:08 | 41.39544 | 21.28761 | 34123 ft | 421 kts | 308° |
| 2026-05-04 14:09 | 41.44415 | 21.19030 | 34112 ft | 421 kts | 308° |
| 2026-05-04 14:10 | 41.49302 | 21.09265 | 34084 ft | 422 kts | 308° |
| 2026-05-04 14:10 | 41.52546 | 21.02739 | 34100 ft | 422 kts | 308° |
| 2026-05-04 14:11 | 41.55797 | 20.96224 | 34127 ft | 422 kts | 308° |
| 2026-05-04 14:11 | 41.60659 | 20.86435 | 34131 ft | 421 kts | 308° |
| 2026-05-04 14:12 | 41.63336 | 20.80999 | 34132 ft | 421 kts | 307° |
| 2026-05-04 14:13 | 41.68168 | 20.71190 | 34121 ft | 421 kts | 307° |
| 2026-05-04 14:13 | 41.71378 | 20.64640 | 34131 ft | 421 kts | 307° |
| 2026-05-04 14:14 | 41.74583 | 20.58101 | 34132 ft | 420 kts | 307° |
| 2026-05-04 14:14 | 41.79552 | 20.48441 | 34136 ft | 419 kts | 311° |
| 2026-05-04 14:15 | 41.86845 | 20.36284 | 34126 ft | 418 kts | 312° |
| 2026-05-04 14:16 | 41.92212 | 20.27031 | 34133 ft | 419 kts | 311° |
| 2026-05-04 14:17 | 41.97536 | 20.17734 | 34129 ft | 418 kts | 311° |
| 2026-05-04 14:18 | 42.02873 | 20.08450 | 34118 ft | 418 kts | 310° |
| 2026-05-04 14:19 | 42.09971 | 19.96056 | 34125 ft | 418 kts | 311° |
| 2026-05-04 14:19 | 42.13493 | 19.89883 | 34125 ft | 418 kts | 311° |
| 2026-05-04 14:20 | 42.17037 | 19.83669 | 34118 ft | 418 kts | 311° |
| 2026-05-04 14:20 | 42.20577 | 19.77443 | 34087 ft | 418 kts | 310° |
| 2026-05-04 14:21 | 42.25884 | 19.68083 | 34097 ft | 419 kts | 310° |
| 2026-05-04 14:21 | 42.29424 | 19.61828 | 34095 ft | 419 kts | 310° |
| 2026-05-04 14:22 | 42.32963 | 19.55558 | 34093 ft | 420 kts | 310° |
| 2026-05-04 14:22 | 42.36504 | 19.49284 | 34078 ft | 420 kts | 310° |
| 2026-05-04 14:23 | 42.41824 | 19.39816 | 34061 ft | 422 kts | 309° |
| 2026-05-04 14:24 | 42.45368 | 19.33483 | 34066 ft | 423 kts | 309° |
| 2026-05-04 14:24 | 42.48918 | 19.27128 | 34078 ft | 423 kts | 309° |
| 2026-05-04 14:25 | 42.52469 | 19.20768 | 34091 ft | 423 kts | 309° |
| 2026-05-04 14:25 | 42.57799 | 19.11207 | 34091 ft | 423 kts | 309° |
| 2026-05-04 14:26 | 42.61337 | 19.04831 | 34103 ft | 423 kts | 309° |
| 2026-05-04 14:26 | 42.64873 | 18.98446 | 34112 ft | 423 kts | 309° |
| 2026-05-04 14:27 | 42.68409 | 18.92040 | 34122 ft | 424 kts | 309° |
| 2026-05-04 14:27 | 42.71945 | 18.85623 | 34125 ft | 424 kts | 309° |
| 2026-05-04 14:28 | 42.75486 | 18.79192 | 34133 ft | 425 kts | 309° |
| 2026-05-04 14:28 | 42.79021 | 18.72759 | 34133 ft | 424 kts | 308° |
| 2026-05-04 14:29 | 42.86039 | 18.59937 | 34144 ft | 423 kts | 308° |
| 2026-05-04 14:30 | 42.89548 | 18.53508 | 34148 ft | 423 kts | 308° |
| 2026-05-04 14:31 | 42.94813 | 18.43835 | 34132 ft | 424 kts | 308° |
| 2026-05-04 14:32 | 43.01815 | 18.30906 | 34146 ft | 423 kts | 308° |
| 2026-05-04 14:32 | 43.05305 | 18.24442 | 34148 ft | 423 kts | 308° |
| 2026-05-04 14:33 | 43.08797 | 18.17972 | 34142 ft | 422 kts | 308° |
| 2026-05-04 14:33 | 43.12280 | 18.11496 | 34136 ft | 422 kts | 308° |
| 2026-05-04 14:34 | 43.15756 | 18.05015 | 34129 ft | 422 kts | 308° |
| 2026-05-04 14:34 | 43.19234 | 17.98524 | 34126 ft | 423 kts | 308° |
| 2026-05-04 14:35 | 43.22718 | 17.92007 | 34119 ft | 424 kts | 308° |
| 2026-05-04 14:35 | 43.26188 | 17.85463 | 34115 ft | 425 kts | 307° |
| 2026-05-04 14:36 | 43.29524 | 17.78768 | 34119 ft | 425 kts | 305° |
| 2026-05-04 14:36 | 43.32737 | 17.71939 | 34100 ft | 425 kts | 304° |
| 2026-05-04 14:37 | 43.35943 | 17.65114 | 34113 ft | 425 kts | 304° |
| 2026-05-04 14:37 | 43.39176 | 17.58321 | 34120 ft | 424 kts | 305° |
| 2026-05-04 14:38 | 43.42421 | 17.51541 | 34113 ft | 424 kts | 305° |
| 2026-05-04 14:38 | 43.45650 | 17.44756 | 34111 ft | 424 kts | 305° |
| 2026-05-04 14:39 | 43.48868 | 17.37954 | 34100 ft | 424 kts | 304° |
| 2026-05-04 14:39 | 43.52091 | 17.31140 | 34102 ft | 424 kts | 304° |
| 2026-05-04 14:40 | 43.56916 | 17.20909 | 34108 ft | 424 kts | 304° |
| 2026-05-04 14:40 | 43.60097 | 17.14126 | 34107 ft | 424 kts | 304° |
| 2026-05-04 14:41 | 43.63312 | 17.07284 | 34111 ft | 424 kts | 304° |
| 2026-05-04 14:42 | 43.69742 | 16.93600 | 34104 ft | 425 kts | 304° |
| 2026-05-04 14:42 | 43.72941 | 16.86721 | 34108 ft | 426 kts | 304° |
| 2026-05-04 14:43 | 43.76135 | 16.79830 | 34106 ft | 426 kts | 304° |
| 2026-05-04 14:43 | 43.79335 | 16.72936 | 34116 ft | 426 kts | 304° |
| 2026-05-04 14:44 | 43.82534 | 16.66020 | 34100 ft | 427 kts | 303° |
| 2026-05-04 14:44 | 43.85728 | 16.59093 | 34107 ft | 427 kts | 303° |
| 2026-05-04 14:45 | 43.88927 | 16.52146 | 34117 ft | 428 kts | 303° |
| 2026-05-04 14:45 | 43.92121 | 16.45193 | 34116 ft | 428 kts | 303° |
| 2026-05-04 14:46 | 43.95307 | 16.38225 | 34103 ft | 428 kts | 303° |
| 2026-05-04 14:46 | 43.98499 | 16.31233 | 34103 ft | 429 kts | 303° |
| 2026-05-04 14:47 | 44.01696 | 16.24229 | 34101 ft | 430 kts | 303° |
| 2026-05-04 14:47 | 44.04886 | 16.17204 | 34117 ft | 430 kts | 303° |
| 2026-05-04 14:48 | 44.08075 | 16.10173 | 34111 ft | 430 kts | 302° |
| 2026-05-04 14:48 | 44.11265 | 16.03130 | 34101 ft | 431 kts | 302° |
| 2026-05-04 14:49 | 44.14463 | 15.96063 | 34099 ft | 432 kts | 302° |
| 2026-05-04 14:49 | 44.17659 | 15.88967 | 34104 ft | 433 kts | 302° |
| 2026-05-04 14:50 | 44.20851 | 15.81855 | 34103 ft | 433 kts | 302° |
| 2026-05-04 14:50 | 44.24040 | 15.74715 | 34098 ft | 435 kts | 302° |
| 2026-05-04 14:51 | 44.27249 | 15.67548 | 34099 ft | 436 kts | 302° |
| 2026-05-04 14:51 | 44.30464 | 15.60350 | 34097 ft | 437 kts | 302° |
| 2026-05-04 14:52 | 44.33672 | 15.53134 | 34124 ft | 437 kts | 302° |
| 2026-05-04 14:52 | 44.36876 | 15.45912 | 34117 ft | 438 kts | 301° |
| 2026-05-04 14:53 | 44.40079 | 15.38663 | 34108 ft | 439 kts | 301° |
| 2026-05-04 14:53 | 44.43270 | 15.31448 | 34102 ft | 440 kts | 301° |
| 2026-05-04 14:54 | 44.46484 | 15.24149 | 34111 ft | 440 kts | 301° |
| 2026-05-04 14:54 | 44.49687 | 15.16836 | 34115 ft | 440 kts | 300° |
| 2026-05-04 14:55 | 44.52897 | 15.09526 | 34126 ft | 441 kts | 300° |
| 2026-05-04 14:55 | 44.56101 | 15.02206 | 34130 ft | 440 kts | 300° |
| 2026-05-04 14:56 | 44.59297 | 14.94876 | 34142 ft | 440 kts | 300° |
| 2026-05-04 14:56 | 44.62486 | 14.87531 | 34129 ft | 441 kts | 300° |
| 2026-05-04 14:57 | 44.65672 | 14.80164 | 34123 ft | 442 kts | 300° |
| 2026-05-04 14:57 | 44.68869 | 14.72784 | 34127 ft | 443 kts | 300° |
| 2026-05-04 14:58 | 44.72067 | 14.65385 | 34130 ft | 443 kts | 300° |
| 2026-05-04 14:58 | 44.74715 | 14.59227 | 34131 ft | 443 kts | 300° |
| 2026-05-04 14:59 | 44.77892 | 14.51804 | 34134 ft | 442 kts | 299° |
| 2026-05-04 15:00 | 44.82646 | 14.40698 | 34121 ft | 441 kts | 298° |
| 2026-05-04 15:00 | 44.85801 | 14.33300 | 34136 ft | 440 kts | 299° |
| 2026-05-04 15:01 | 44.90532 | 14.22192 | 34118 ft | 441 kts | 299° |
| 2026-05-04 15:01 | 44.93690 | 14.14738 | 34121 ft | 445 kts | 298° |
| 2026-05-04 15:02 | 44.96895 | 14.07143 | 34120 ft | 455 kts | 298° |
| 2026-05-04 15:02 | 45.00151 | 13.99413 | 34117 ft | 459 kts | 298° |
| 2026-05-04 15:03 | 45.03420 | 13.91649 | 34120 ft | 460 kts | 298° |
| 2026-05-04 15:03 | 45.06689 | 13.83863 | 34117 ft | 461 kts | 298° |
| 2026-05-04 15:04 | 45.09953 | 13.76046 | 34110 ft | 461 kts | 298° |
| 2026-05-04 15:04 | 45.13210 | 13.68214 | 34110 ft | 461 kts | 298° |
| 2026-05-04 15:05 | 45.16433 | 13.60457 | 34105 ft | 462 kts | 298° |
| 2026-05-04 15:05 | 45.19694 | 13.52603 | 34107 ft | 462 kts | 298° |
| 2026-05-04 15:06 | 45.22951 | 13.44744 | 34090 ft | 462 kts | 298° |
| 2026-05-04 15:07 | 45.27812 | 13.32919 | 34084 ft | 462 kts | 298° |
| 2026-05-04 15:07 | 45.31067 | 13.25044 | 34082 ft | 463 kts | 301° |
| 2026-05-04 15:08 | 45.34888 | 13.17668 | 34077 ft | 463 kts | 304° |
| 2026-05-04 15:08 | 45.38743 | 13.10324 | 34070 ft | 463 kts | 304° |
| 2026-05-04 15:09 | 45.42596 | 13.02967 | 34082 ft | 464 kts | 304° |
| 2026-05-04 15:09 | 45.46453 | 12.95597 | 34065 ft | 465 kts | 304° |
| 2026-05-04 15:10 | 45.52244 | 12.84477 | 34046 ft | 467 kts | 304° |
| 2026-05-04 15:11 | 45.58028 | 12.73356 | 34058 ft | 468 kts | 304° |
| 2026-05-04 15:11 | 45.61897 | 12.65885 | 34067 ft | 468 kts | 304° |
| 2026-05-04 15:12 | 45.65767 | 12.58396 | 34074 ft | 469 kts | 304° |
| 2026-05-04 15:12 | 45.69632 | 12.50895 | 34085 ft | 468 kts | 304° |
| 2026-05-04 15:13 | 45.73492 | 12.43380 | 34088 ft | 468 kts | 304° |
| 2026-05-04 15:13 | 45.77342 | 12.35869 | 34086 ft | 468 kts | 303° |
| 2026-05-04 15:14 | 45.81193 | 12.28334 | 34086 ft | 468 kts | 303° |
| 2026-05-04 15:14 | 45.85034 | 12.20791 | 34091 ft | 468 kts | 303° |
| 2026-05-04 15:15 | 45.88872 | 12.13239 | 34091 ft | 469 kts | 303° |
| 2026-05-04 15:15 | 45.92710 | 12.05671 | 34099 ft | 469 kts | 303° |
| 2026-05-04 15:16 | 45.98454 | 11.94299 | 34099 ft | 469 kts | 303° |
| 2026-05-04 15:16 | 46.02265 | 11.86731 | 34410 ft | 458 kts | 303° |
| 2026-05-04 15:17 | 46.04119 | 11.83048 | 34844 ft | 452 kts | 303° |
| 2026-05-04 15:17 | 46.07751 | 11.75799 | 34344 ft | 444 kts | 302° |
| 2026-05-04 15:17 | 46.09554 | 11.72183 | 34107 ft | 447 kts | 302° |
| 2026-05-04 15:18 | 46.11369 | 11.68540 | 34300 ft | 449 kts | 302° |
| 2026-05-04 15:18 | 46.13186 | 11.64882 | 34603 ft | 448 kts | 302° |
| 2026-05-04 15:18 | 46.14991 | 11.61238 | 34914 ft | 447 kts | 302° |
| 2026-05-04 15:19 | 46.18586 | 11.53959 | 35509 ft | 444 kts | 302° |
| 2026-05-04 15:19 | 46.20372 | 11.50333 | 35800 ft | 442 kts | 302° |
| 2026-05-04 15:19 | 46.23925 | 11.43110 | 36078 ft | 441 kts | 302° |
| 2026-05-04 15:20 | 46.27472 | 11.35885 | 36071 ft | 440 kts | 302° |
| 2026-05-04 15:20 | 46.31011 | 11.28661 | 36066 ft | 440 kts | 302° |
| 2026-05-04 15:21 | 46.34544 | 11.21420 | 36190 ft | 440 kts | 302° |
| 2026-05-04 15:22 | 46.39830 | 11.10534 | 36199 ft | 441 kts | 302° |
| 2026-05-04 15:22 | 46.41592 | 11.06898 | 36080 ft | 441 kts | 302° |
| 2026-05-04 15:22 | 46.45128 | 10.99628 | 36092 ft | 441 kts | 302° |
| 2026-05-04 15:23 | 46.48681 | 10.92355 | 36110 ft | 442 kts | 302° |
| 2026-05-04 15:23 | 46.52223 | 10.85073 | 36122 ft | 442 kts | 302° |
| 2026-05-04 15:24 | 46.59278 | 10.70459 | 36114 ft | 443 kts | 302° |
| 2026-05-04 15:25 | 46.62824 | 10.63103 | 36103 ft | 450 kts | 302° |
| 2026-05-04 15:26 | 46.68219 | 10.51892 | 36093 ft | 450 kts | 301° |
| 2026-05-04 15:26 | 46.73520 | 10.40582 | 36096 ft | 449 kts | 296° |
| 2026-05-04 15:27 | 46.77277 | 10.28137 | 36104 ft | 447 kts | 290° |
| 2026-05-04 15:28 | 46.80864 | 10.15577 | 36126 ft | 447 kts | 290° |
| 2026-05-04 15:29 | 46.84455 | 10.03012 | 36130 ft | 447 kts | 289° |
| 2026-05-04 15:30 | 46.92742 | 9.73693 | 36088 ft | 447 kts | 289° |
| 2026-05-04 15:31 | 46.96309 | 9.61081 | 36066 ft | 447 kts | 289° |
| 2026-05-04 15:32 | 47.02189 | 9.39984 | 36045 ft | 449 kts | 289° |
| 2026-05-04 15:34 | 47.08038 | 9.18780 | 36028 ft | 449 kts | 289° |
| 2026-05-04 15:34 | 47.11548 | 9.06027 | 36033 ft | 449 kts | 288° |
| 2026-05-04 15:35 | 47.15032 | 8.93230 | 36018 ft | 450 kts | 288° |
| 2026-05-04 15:36 | 47.18409 | 8.80374 | 36002 ft | 449 kts | 287° |
| 2026-05-04 15:36 | 47.20568 | 8.71756 | 35998 ft | 449 kts | 287° |
| 2026-05-04 15:37 | 47.22720 | 8.63186 | 36009 ft | 450 kts | 287° |
| 2026-05-04 15:37 | 47.24896 | 8.54560 | 36004 ft | 450 kts | 287° |
| 2026-05-04 15:38 | 47.27073 | 8.45940 | 35997 ft | 450 kts | 287° |
| 2026-05-04 15:38 | 47.29251 | 8.37303 | 36004 ft | 450 kts | 287° |
| 2026-05-04 15:39 | 47.31416 | 8.28644 | 36026 ft | 450 kts | 286° |
| 2026-05-04 15:40 | 47.34640 | 8.15627 | 36015 ft | 451 kts | 286° |
| 2026-05-04 15:40 | 47.36792 | 8.06943 | 36009 ft | 451 kts | 286° |
| 2026-05-04 15:41 | 47.38940 | 7.98256 | 36019 ft | 451 kts | 286° |
| 2026-05-04 15:41 | 47.41077 | 7.89560 | 36019 ft | 451 kts | 286° |
| 2026-05-04 15:42 | 47.43207 | 7.80855 | 36031 ft | 451 kts | 286° |
| 2026-05-04 15:42 | 47.45325 | 7.72142 | 36037 ft | 451 kts | 286° |
| 2026-05-04 15:43 | 47.47219 | 7.63344 | 36053 ft | 447 kts | 280° |
| 2026-05-04 15:43 | 47.48687 | 7.54404 | 36050 ft | 447 kts | 280° |
| 2026-05-04 15:44 | 47.50169 | 7.45477 | 36049 ft | 447 kts | 279° |
| 2026-05-04 15:44 | 47.51652 | 7.36557 | 36032 ft | 447 kts | 279° |
| 2026-05-04 15:45 | 47.53122 | 7.27691 | 36034 ft | 447 kts | 279° |
| 2026-05-04 15:45 | 47.54591 | 7.18765 | 36040 ft | 447 kts | 279° |
| 2026-05-04 15:46 | 47.56047 | 7.09830 | 36062 ft | 447 kts | 279° |
| 2026-05-04 15:46 | 47.57505 | 7.00881 | 36058 ft | 447 kts | 279° |
| 2026-05-04 15:47 | 47.58955 | 6.91923 | 36056 ft | 447 kts | 279° |
| 2026-05-04 15:47 | 47.60401 | 6.82964 | 36057 ft | 447 kts | 279° |
| 2026-05-04 15:48 | 47.61835 | 6.74002 | 36053 ft | 447 kts | 279° |
| 2026-05-04 15:48 | 47.63731 | 6.62043 | 36065 ft | 448 kts | 278° |
| 2026-05-04 15:49 | 47.65159 | 6.52996 | 36058 ft | 447 kts | 278° |
| 2026-05-04 15:49 | 47.66570 | 6.44006 | 36053 ft | 448 kts | 278° |
| 2026-05-04 15:50 | 47.67960 | 6.35072 | 36051 ft | 447 kts | 278° |
| 2026-05-04 15:50 | 47.69426 | 6.26084 | 36070 ft | 449 kts | 281° |
| 2026-05-04 15:51 | 47.71309 | 6.17223 | 36058 ft | 451 kts | 284° |
| 2026-05-04 15:51 | 47.73328 | 6.08400 | 36053 ft | 451 kts | 284° |
| 2026-05-04 15:52 | 47.75260 | 5.99541 | 36047 ft | 451 kts | 283° |
| 2026-05-04 15:52 | 47.77110 | 5.90641 | 36048 ft | 451 kts | 282° |
| 2026-05-04 15:53 | 47.78957 | 5.81723 | 36062 ft | 451 kts | 282° |
| 2026-05-04 15:53 | 47.81231 | 5.73021 | 36044 ft | 459 kts | 297° |
| 2026-05-04 15:54 | 47.84658 | 5.64970 | 36045 ft | 460 kts | 298° |
| 2026-05-04 15:54 | 47.88132 | 5.56952 | 36039 ft | 461 kts | 298° |
| 2026-05-04 15:55 | 47.91601 | 5.48916 | 36048 ft | 461 kts | 298° |
| 2026-05-04 15:55 | 47.95049 | 5.40851 | 36026 ft | 461 kts | 297° |
| 2026-05-04 15:56 | 47.98489 | 5.32767 | 36028 ft | 461 kts | 297° |
| 2026-05-04 15:56 | 48.01910 | 5.24728 | 36014 ft | 461 kts | 297° |
| 2026-05-04 15:57 | 48.05345 | 5.16633 | 36017 ft | 461 kts | 297° |
| 2026-05-04 15:57 | 48.08774 | 5.08529 | 36026 ft | 461 kts | 297° |
| 2026-05-04 15:58 | 48.12195 | 5.00403 | 36031 ft | 462 kts | 297° |
| 2026-05-04 15:58 | 48.15629 | 4.92268 | 36010 ft | 462 kts | 297° |
| 2026-05-04 15:59 | 48.19068 | 4.84129 | 36004 ft | 462 kts | 297° |
| 2026-05-04 15:59 | 48.22486 | 4.75966 | 35995 ft | 462 kts | 297° |
| 2026-05-04 16:00 | 48.25888 | 4.67781 | 36013 ft | 462 kts | 297° |
| 2026-05-04 16:00 | 48.29704 | 4.59971 | 36000 ft | 468 kts | 307° |
| 2026-05-04 16:01 | 48.34032 | 4.52655 | 35990 ft | 469 kts | 307° |
| 2026-05-04 16:01 | 48.38376 | 4.45341 | 35983 ft | 469 kts | 307° |
| 2026-05-04 16:02 | 48.42728 | 4.38002 | 35975 ft | 470 kts | 307° |
| 2026-05-04 16:03 | 48.49229 | 4.26953 | 35989 ft | 470 kts | 307° |
| 2026-05-04 16:03 | 48.53560 | 4.19560 | 35981 ft | 470 kts | 307° |
| 2026-05-04 16:04 | 48.57892 | 4.12155 | 35981 ft | 471 kts | 307° |
| 2026-05-04 16:04 | 48.64393 | 4.01013 | 35973 ft | 471 kts | 307° |
| 2026-05-04 16:05 | 48.68720 | 3.93552 | 35972 ft | 472 kts | 307° |
| 2026-05-04 16:06 | 48.75281 | 3.82503 | 35979 ft | 474 kts | 310° |
| 2026-05-04 16:07 | 48.84848 | 3.68667 | 35983 ft | 475 kts | 312° |
| 2026-05-04 16:08 | 48.94269 | 3.54578 | 35990 ft | 475 kts | 310° |
| 2026-05-04 16:09 | 49.06007 | 3.36851 | 35996 ft | 475 kts | 311° |
| 2026-05-04 16:10 | 49.15389 | 3.22636 | 35996 ft | 475 kts | 311° |
| 2026-05-04 16:11 | 49.24749 | 3.08353 | 36005 ft | 475 kts | 311° |
| 2026-05-04 16:12 | 49.38781 | 2.86864 | 35992 ft | 475 kts | 311° |
| 2026-05-04 16:13 | 49.48100 | 2.72434 | 35987 ft | 475 kts | 311° |
| 2026-05-04 16:14 | 49.57375 | 2.58016 | 35986 ft | 475 kts | 311° |
| 2026-05-04 16:16 | 49.68373 | 2.39100 | 35976 ft | 472 kts | 306° |
| 2026-05-04 16:17 | 49.78901 | 2.19582 | 35983 ft | 473 kts | 307° |
| 2026-05-04 16:18 | 49.87387 | 2.04027 | 35966 ft | 472 kts | 307° |
| 2026-05-04 16:19 | 49.97940 | 1.84504 | 35959 ft | 472 kts | 307° |
| 2026-05-04 16:20 | 50.08710 | 1.65219 | 35963 ft | 476 kts | 316° |
| 2026-05-04 16:22 | 50.21178 | 1.48303 | 35980 ft | 477 kts | 316° |
| 2026-05-04 16:22 | 50.28713 | 1.37992 | 33673 ft | 478 kts | 315° |
| 2026-05-04 16:23 | 50.36236 | 1.27688 | 30733 ft | 481 kts | 316° |
| 2026-05-04 16:24 | 50.46326 | 1.13770 | 25819 ft | 487 kts | 316° |
| 2026-05-04 16:25 | 50.51185 | 1.07021 | 24912 ft | 436 kts | 314° |
| 2026-05-04 16:26 | 50.58655 | 0.94571 | 23501 ft | 368 kts | 310° |
| 2026-05-04 16:26 | 50.63788 | 0.85832 | 21225 ft | 356 kts | 311° |
| 2026-05-04 16:27 | 50.67105 | 0.80191 | 19864 ft | 346 kts | 311° |
| 2026-05-04 16:28 | 50.71641 | 0.71614 | 17838 ft | 334 kts | 307° |
| 2026-05-04 16:28 | 50.75872 | 0.63117 | 15753 ft | 323 kts | 308° |
| 2026-05-04 16:29 | 50.81378 | 0.52262 | 13160 ft | 310 kts | 308° |
| 2026-05-04 16:30 | 50.85360 | 0.44411 | 11193 ft | 301 kts | 308° |
| 2026-05-04 16:31 | 50.87950 | 0.39288 | 10028 ft | 293 kts | 308° |
| 2026-05-04 16:31 | 50.91759 | 0.31855 | 8077 ft | 286 kts | 308° |
| 2026-05-04 16:32 | 50.94140 | 0.23847 | 7009 ft | 254 kts | 281° |
| 2026-05-04 16:33 | 50.94777 | 0.18562 | 6989 ft | 242 kts | 281° |
| 2026-05-04 16:33 | 50.95390 | 0.13332 | 6991 ft | 241 kts | 281° |
| 2026-05-04 16:34 | 50.95991 | 0.08114 | 6992 ft | 240 kts | 281° |
| 2026-05-04 16:34 | 50.96297 | 0.05501 | 7000 ft | 242 kts | 281° |
| 2026-05-04 16:35 | 50.97225 | -0.02312 | 6833 ft | 241 kts | 281° |
| 2026-05-04 16:35 | 50.98180 | -0.10126 | 5916 ft | 239 kts | 281° |
| 2026-05-04 16:36 | 50.98492 | -0.12707 | 5609 ft | 238 kts | 281° |
| 2026-05-04 16:36 | 50.99100 | -0.17838 | 5054 ft | 234 kts | 281° |
| 2026-05-04 16:37 | 50.99587 | -0.22119 | 5003 ft | 236 kts | 281° |
| 2026-05-04 16:37 | 50.99873 | -0.24679 | 5006 ft | 236 kts | 281° |
| 2026-05-04 16:37 | 51.00458 | -0.29804 | 4780 ft | 235 kts | 281° |
| 2026-05-04 16:38 | 51.01020 | -0.34868 | 4149 ft | 234 kts | 281° |
| 2026-05-04 16:39 | 51.02162 | -0.42273 | 3234 ft | 228 kts | 311° |
| 2026-05-04 16:39 | 51.04840 | -0.44072 | 3003 ft | 204 kts | 355° |
| 2026-05-04 16:40 | 51.07515 | -0.44471 | 3037 ft | 187 kts | 356° |
| 2026-05-04 16:40 | 51.10085 | -0.44833 | 3005 ft | 184 kts | 357° |
| 2026-05-04 16:41 | 51.11942 | -0.42741 | 2925 ft | 184 kts | 85° |
| 2026-05-04 16:41 | 51.12346 | -0.36748 | 2270 ft | 182 kts | 76° |
| 2026-05-04 16:42 | 51.13132 | -0.31142 | 1570 ft | 162 kts | 76° |
| 2026-05-04 16:43 | 51.13602 | -0.27742 | 1118 ft | 148 kts | 77° |
| 2026-05-04 16:43 | 51.14036 | -0.24623 | 705 ft | 141 kts | 75° |
| 2026-05-04 16:43 | 51.14248 | -0.23099 | 513 ft | 141 kts | 73° |
| 2026-05-04 16:44 | 51.14962 | -0.17986 | 209 ft | 49 kts | 78° |
| 2026-05-04 16:45 | 51.15122 | -0.17230 | 207 ft | 15 kts | 29° |
| 2026-05-04 16:46 | 51.15186 | -0.17248 | 216 ft | 0 kts | 326° |
| 2026-05-04 16:46 | 51.15192 | -0.17254 | 211 ft | 1 kts | 326° |
| 2026-05-04 16:47 | 51.15226 | -0.17291 | 209 ft | 6 kts | 326° |
| 2026-05-04 16:47 | 51.15338 | -0.17361 | 208 ft | 8 kts | 5° |
| 2026-05-04 16:48 | 51.15419 | -0.17036 | 213 ft | 7 kts | 79° |
| 2026-05-04 16:48 | 51.15438 | -0.17014 | 211 ft | 4 kts | 355° |
| 2026-05-04 16:49 | 51.15477 | -0.17026 | 204 ft | 1 kts | 348° |
| 2026-05-04 16:49 | 51.15479 | -0.17027 | 204 ft | 0 kts | 348° |